MSC Divina — 3FFA5 — position and weather

sailwx.info

Track history (hours):
 
Tides and Currents Weather Stations Pressure Air Temp Water Temp Dewpoint Dewpoint Depression Visibility Wind Speed Wind Dir Waves Ship Positions

MSC Divina

Last reported at 2014-Sep-20 04:33 UTC. Time now 2014-Sep-20 05:52 UTC.
Position N 25°50' W 079°55'.

Length 333 m; draft 8.7 m.

Type: Ship. MMSI: 373178000.

Date/timePositionNaut miles runAvg speedWind from/ knotsBaromVisibWave heightAir tempDewpointWater temp
2014-Sep-20 04:33N 25°50' W 079°55'2020.0
2014-Sep-20 03:33N 25°60' W 079°36'2222.3
2014-Sep-20 02:34N 26°12' W 079°15'4 0.2
2014-Sep-19 04:21N 26°13' W 079°11'1418.0
2014-Sep-19 03:33N 26°03' W 079°23'2019.9
2014-Sep-19 02:33N 25°45' W 079°31'51718.9
2014-Sep-17 23:16N 20°31' W 086°58'1 0.8
2014-Sep-17 22:31N 20°31' W 086°57'0 0.0
2014-Sep-17 21:31N 20°31' W 086°57'0 0.0
2014-Sep-17 20:31N 20°31' W 086°57'0 0.0
2014-Sep-17 19:31N 20°31' W 086°57'0 0.0
2014-Sep-17 18:31N 20°31' W 086°57'0 0.0
2014-Sep-17 17:31N 20°31' W 086°57'0 0.0
2014-Sep-17 16:31N 20°31' W 086°57'0 0.0
2014-Sep-17 15:31N 20°31' W 086°57'0 0.0
2014-Sep-17 14:31N 20°31' W 086°57'  
2014-Sep-13 21:31N 25°47' W 080°10'0 0.0
2014-Sep-13 20:22N 25°47' W 080°10'0 0.0
2014-Sep-13 19:22N 25°47' W 080°10'0 0.0
2014-Sep-13 18:25N 25°47' W 080°10'0 0.0
2014-Sep-13 17:25N 25°47' W 080°10'0 0.0
2014-Sep-13 16:25N 25°47' W 080°10'0 0.0
2014-Sep-13 15:25N 25°47' W 080°10'0 0.0
2014-Sep-13 14:28N 25°47' W 080°10'0 0.0
2014-Sep-13 13:31N 25°47' W 080°10'0 0.0
2014-Sep-13 12:31N 25°47' W 080°10'0 0.0
2014-Sep-13 11:31N 25°47' W 080°10'0 0.0
2014-Sep-13 10:31N 25°47' W 080°10'1 0.6
2014-Sep-13 09:33N 25°47' W 080°10'8 8.2
2014-Sep-13 08:33N 25°46' W 080°01'1313.6
2014-Sep-13 07:33N 25°53' W 079°48'1615.7
2014-Sep-13 06:33N 26°02' W 079°33'1717.0
2014-Sep-13 05:33N 26°10' W 079°17'  
Track history (hours):
 
Tides and Currents Weather Stations Pressure Air Temp Water Temp Dewpoint Dewpoint Depression Visibility Wind Speed Wind Dir Waves Ship Positions

MSC Divina

Last reported at 2014-Sep-20 04:33 UTC. Time now 2014-Sep-20 05:52 UTC.
Position N 25°50' W 079°55'.

Length 333 m; draft 8.7 m.

Type: Ship. MMSI: 373178000.

Date/timePositionNaut miles runAvg speedWind from/ knotsBaromVisibWave heightAir tempDewpointWater temp
2014-Sep-20 04:33N 25°50' W 079°55'2020.0
2014-Sep-20 03:33N 25°60' W 079°36'2222.3
2014-Sep-20 02:34N 26°12' W 079°15'4 0.2
2014-Sep-19 04:21N 26°13' W 079°11'1418.0
2014-Sep-19 03:33N 26°03' W 079°23'2019.9
2014-Sep-19 02:33N 25°45' W 079°31'51718.9
2014-Sep-17 23:16N 20°31' W 086°58'1 0.8
2014-Sep-17 22:31N 20°31' W 086°57'0 0.0
2014-Sep-17 21:31N 20°31' W 086°57'0 0.0
2014-Sep-17 20:31N 20°31' W 086°57'0 0.0
2014-Sep-17 19:31N 20°31' W 086°57'0 0.0
2014-Sep-17 18:31N 20°31' W 086°57'0 0.0
2014-Sep-17 17:31N 20°31' W 086°57'0 0.0
2014-Sep-17 16:31N 20°31' W 086°57'0 0.0
2014-Sep-17 15:31N 20°31' W 086°57'0 0.0
2014-Sep-17 14:31N 20°31' W 086°57'  
2014-Sep-13 21:31N 25°47' W 080°10'0 0.0
2014-Sep-13 20:22N 25°47' W 080°10'0 0.0
2014-Sep-13 19:22N 25°47' W 080°10'0 0.0
2014-Sep-13 18:25N 25°47' W 080°10'0 0.0
2014-Sep-13 17:25N 25°47' W 080°10'0 0.0
2014-Sep-13 16:25N 25°47' W 080°10'0 0.0
2014-Sep-13 15:25N 25°47' W 080°10'0 0.0
2014-Sep-13 14:28N 25°47' W 080°10'0 0.0
2014-Sep-13 13:31N 25°47' W 080°10'0 0.0
2014-Sep-13 12:31N 25°47' W 080°10'0 0.0
2014-Sep-13 11:31N 25°47' W 080°10'0 0.0
2014-Sep-13 10:31N 25°47' W 080°10'1 0.6
2014-Sep-13 09:33N 25°47' W 080°10'8 8.2
2014-Sep-13 08:33N 25°46' W 080°01'1313.6
2014-Sep-13 07:33N 25°53' W 079°48'1615.7
2014-Sep-13 06:33N 26°02' W 079°33'1717.0
2014-Sep-13 05:33N 26°10' W 079°17'  

Dump ship's entire track history